sensor_id;sensor_type;location;lat;lon;timestamp;P1;durP1;ratioP1;P2;durP2;ratioP2
44774;SDS011;31340;51.402;0.016;2023-07-31T00:00:53;17.80;;;6.35;;
44774;SDS011;31340;51.402;0.016;2023-07-31T00:03:20;18.67;;;5.80;;
44774;SDS011;31340;51.402;0.016;2023-07-31T00:05:48;20.88;;;6.63;;
44774;SDS011;31340;51.402;0.016;2023-07-31T00:08:16;18.60;;;5.53;;
44774;SDS011;31340;51.402;0.016;2023-07-31T00:10:43;18.13;;;6.20;;
44774;SDS011;31340;51.402;0.016;2023-07-31T00:13:11;17.92;;;6.05;;
44774;SDS011;31340;51.402;0.016;2023-07-31T00:15:39;14.70;;;5.50;;
44774;SDS011;31340;51.402;0.016;2023-07-31T00:18:07;16.42;;;4.78;;
44774;SDS011;31340;51.402;0.016;2023-07-31T00:20:35;18.55;;;4.90;;
44774;SDS011;31340;51.402;0.016;2023-07-31T00:23:02;16.00;;;4.53;;
44774;SDS011;31340;51.402;0.016;2023-07-31T00:25:30;11.52;;;4.20;;
44774;SDS011;31340;51.402;0.016;2023-07-31T00:27:58;9.93;;;3.78;;
44774;SDS011;31340;51.402;0.016;2023-07-31T00:30:26;9.38;;;3.47;;
44774;SDS011;31340;51.402;0.016;2023-07-31T00:32:54;8.38;;;3.33;;
44774;SDS011;31340;51.402;0.016;2023-07-31T00:35:21;7.70;;;2.90;;
44774;SDS011;31340;51.402;0.016;2023-07-31T00:37:49;8.70;;;2.95;;
44774;SDS011;31340;51.402;0.016;2023-07-31T00:40:16;6.65;;;2.60;;
44774;SDS011;31340;51.402;0.016;2023-07-31T00:42:44;9.60;;;3.83;;
44774;SDS011;31340;51.402;0.016;2023-07-31T00:45:11;6.13;;;3.05;;
44774;SDS011;31340;51.402;0.016;2023-07-31T00:47:39;5.55;;;2.53;;
44774;SDS011;31340;51.402;0.016;2023-07-31T00:50:07;5.53;;;2.35;;
44774;SDS011;31340;51.402;0.016;2023-07-31T00:52:35;5.57;;;2.80;;
44774;SDS011;31340;51.402;0.016;2023-07-31T00:55:04;4.82;;;2.10;;
44774;SDS011;31340;51.402;0.016;2023-07-31T00:57:32;7.50;;;2.28;;
44774;SDS011;31340;51.402;0.016;2023-07-31T01:00:02;6.03;;;2.17;;
44774;SDS011;31340;51.402;0.016;2023-07-31T01:02:31;8.02;;;1.60;;
44774;SDS011;31340;51.402;0.016;2023-07-31T01:04:59;5.10;;;1.73;;
44774;SDS011;31340;51.402;0.016;2023-07-31T01:07:34;6.78;;;1.75;;
44774;SDS011;31340;51.402;0.016;2023-07-31T01:10:23;5.03;;;1.70;;
44774;SDS011;31340;51.402;0.016;2023-07-31T01:12:57;2.67;;;1.20;;
44774;SDS011;31340;51.402;0.016;2023-07-31T01:15:25;2.72;;;1.40;;
44774;SDS011;31340;51.402;0.016;2023-07-31T01:17:53;3.03;;;1.20;;
44774;SDS011;31340;51.402;0.016;2023-07-31T01:20:22;5.05;;;1.30;;
44774;SDS011;31340;51.402;0.016;2023-07-31T01:23:07;2.77;;;1.20;;
44774;SDS011;31340;51.402;0.016;2023-07-31T01:28:19;3.22;;;1.48;;
44774;SDS011;31340;51.402;0.016;2023-07-31T01:30:52;5.10;;;1.00;;
44774;SDS011;31340;51.402;0.016;2023-07-31T01:33:22;2.22;;;1.17;;
44774;SDS011;31340;51.402;0.016;2023-07-31T01:35:50;5.65;;;1.30;;
44774;SDS011;31340;51.402;0.016;2023-07-31T01:38:21;5.50;;;1.33;;
44774;SDS011;31340;51.402;0.016;2023-07-31T01:40:52;4.43;;;1.25;;
44774;SDS011;31340;51.402;0.016;2023-07-31T01:43:20;1.83;;;0.90;;
44774;SDS011;31340;51.402;0.016;2023-07-31T01:45:48;5.40;;;1.25;;
44774;SDS011;31340;51.402;0.016;2023-07-31T01:48:17;4.90;;;1.15;;
44774;SDS011;31340;51.402;0.016;2023-07-31T01:50:45;3.78;;;1.40;;
44774;SDS011;31340;51.402;0.016;2023-07-31T01:53:13;4.05;;;2.05;;
44774;SDS011;31340;51.402;0.016;2023-07-31T01:55:40;4.43;;;1.73;;
44774;SDS011;31340;51.402;0.016;2023-07-31T01:58:09;3.65;;;1.50;;
44774;SDS011;31340;51.402;0.016;2023-07-31T02:00:36;3.45;;;1.50;;
44774;SDS011;31340;51.402;0.016;2023-07-31T02:03:04;3.10;;;1.40;;
44774;SDS011;31340;51.402;0.016;2023-07-31T02:05:32;1.88;;;1.30;;
44774;SDS011;31340;51.402;0.016;2023-07-31T02:08:00;4.65;;;1.70;;
44774;SDS011;31340;51.402;0.016;2023-07-31T02:10:30;4.13;;;2.47;;
44774;SDS011;31340;51.402;0.016;2023-07-31T02:12:59;5.60;;;2.13;;
44774;SDS011;31340;51.402;0.016;2023-07-31T02:15:26;4.82;;;2.10;;
44774;SDS011;31340;51.402;0.016;2023-07-31T02:17:54;5.88;;;1.85;;
44774;SDS011;31340;51.402;0.016;2023-07-31T02:20:22;6.53;;;1.75;;
44774;SDS011;31340;51.402;0.016;2023-07-31T02:22:50;3.35;;;1.90;;
44774;SDS011;31340;51.402;0.016;2023-07-31T02:25:19;5.07;;;1.88;;
44774;SDS011;31340;51.402;0.016;2023-07-31T02:27:46;4.50;;;2.15;;
44774;SDS011;31340;51.402;0.016;2023-07-31T02:30:15;5.18;;;2.10;;
44774;SDS011;31340;51.402;0.016;2023-07-31T02:32:43;4.22;;;2.03;;
44774;SDS011;31340;51.402;0.016;2023-07-31T02:35:11;5.05;;;2.20;;
44774;SDS011;31340;51.402;0.016;2023-07-31T02:37:42;5.85;;;2.10;;
44774;SDS011;31340;51.402;0.016;2023-07-31T02:40:10;5.93;;;2.00;;
44774;SDS011;31340;51.402;0.016;2023-07-31T02:42:37;4.50;;;1.50;;
44774;SDS011;31340;51.402;0.016;2023-07-31T02:45:05;3.63;;;1.45;;
44774;SDS011;31340;51.402;0.016;2023-07-31T02:47:33;3.00;;;1.40;;
44774;SDS011;31340;51.402;0.016;2023-07-31T02:50:02;4.30;;;1.77;;
44774;SDS011;31340;51.402;0.016;2023-07-31T02:52:30;4.40;;;1.98;;
44774;SDS011;31340;51.402;0.016;2023-07-31T02:54:58;8.20;;;1.80;;
44774;SDS011;31340;51.402;0.016;2023-07-31T02:57:25;4.22;;;1.92;;
44774;SDS011;31340;51.402;0.016;2023-07-31T02:59:53;2.85;;;1.98;;
44774;SDS011;31340;51.402;0.016;2023-07-31T03:02:20;5.22;;;2.05;;
44774;SDS011;31340;51.402;0.016;2023-07-31T03:04:48;4.35;;;1.92;;
44774;SDS011;31340;51.402;0.016;2023-07-31T03:07:16;5.28;;;2.00;;
44774;SDS011;31340;51.402;0.016;2023-07-31T03:09:43;4.85;;;1.85;;
44774;SDS011;31340;51.402;0.016;2023-07-31T03:12:11;7.28;;;2.00;;
44774;SDS011;31340;51.402;0.016;2023-07-31T03:14:39;3.72;;;1.50;;
44774;SDS011;31340;51.402;0.016;2023-07-31T03:17:06;2.72;;;1.55;;
44774;SDS011;31340;51.402;0.016;2023-07-31T03:19:33;6.07;;;1.80;;
44774;SDS011;31340;51.402;0.016;2023-07-31T03:22:01;3.25;;;1.73;;
44774;SDS011;31340;51.402;0.016;2023-07-31T03:24:29;6.65;;;1.70;;
44774;SDS011;31340;51.402;0.016;2023-07-31T03:26:56;3.95;;;1.60;;
44774;SDS011;31340;51.402;0.016;2023-07-31T03:29:24;4.95;;;1.75;;
44774;SDS011;31340;51.402;0.016;2023-07-31T03:31:52;4.80;;;1.67;;
44774;SDS011;31340;51.402;0.016;2023-07-31T03:34:20;5.75;;;1.60;;
44774;SDS011;31340;51.402;0.016;2023-07-31T03:36:48;6.05;;;1.77;;
44774;SDS011;31340;51.402;0.016;2023-07-31T03:39:15;4.40;;;1.58;;
44774;SDS011;31340;51.402;0.016;2023-07-31T03:41:43;5.05;;;2.05;;
44774;SDS011;31340;51.402;0.016;2023-07-31T03:44:10;3.80;;;1.42;;
44774;SDS011;31340;51.402;0.016;2023-07-31T03:46:38;3.67;;;1.70;;
44774;SDS011;31340;51.402;0.016;2023-07-31T03:49:06;5.95;;;1.77;;
44774;SDS011;31340;51.402;0.016;2023-07-31T03:51:34;2.55;;;1.48;;
44774;SDS011;31340;51.402;0.016;2023-07-31T03:54:03;6.43;;;1.88;;
44774;SDS011;31340;51.402;0.016;2023-07-31T03:56:31;2.85;;;1.23;;
44774;SDS011;31340;51.402;0.016;2023-07-31T03:59:02;5.28;;;1.65;;
44774;SDS011;31340;51.402;0.016;2023-07-31T04:01:30;4.72;;;1.30;;
44774;SDS011;31340;51.402;0.016;2023-07-31T04:03:58;2.92;;;1.40;;
44774;SDS011;31340;51.402;0.016;2023-07-31T04:06:25;4.10;;;1.33;;
44774;SDS011;31340;51.402;0.016;2023-07-31T04:08:53;3.70;;;1.80;;
44774;SDS011;31340;51.402;0.016;2023-07-31T04:11:21;2.65;;;1.70;;
44774;SDS011;31340;51.402;0.016;2023-07-31T04:13:48;2.88;;;1.40;;
44774;SDS011;31340;51.402;0.016;2023-07-31T04:16:16;3.15;;;1.65;;
44774;SDS011;31340;51.402;0.016;2023-07-31T04:18:44;4.13;;;1.50;;
44774;SDS011;31340;51.402;0.016;2023-07-31T04:21:12;2.83;;;1.45;;
44774;SDS011;31340;51.402;0.016;2023-07-31T04:23:40;2.92;;;1.52;;
44774;SDS011;31340;51.402;0.016;2023-07-31T04:26:07;3.20;;;1.48;;
44774;SDS011;31340;51.402;0.016;2023-07-31T04:28:35;4.00;;;1.65;;
44774;SDS011;31340;51.402;0.016;2023-07-31T04:31:03;2.92;;;1.38;;
44774;SDS011;31340;51.402;0.016;2023-07-31T04:33:31;3.10;;;1.50;;
44774;SDS011;31340;51.402;0.016;2023-07-31T04:35:59;5.30;;;1.83;;
44774;SDS011;31340;51.402;0.016;2023-07-31T04:38:26;4.80;;;1.60;;
44774;SDS011;31340;51.402;0.016;2023-07-31T04:40:54;3.80;;;2.05;;
44774;SDS011;31340;51.402;0.016;2023-07-31T04:43:22;4.07;;;1.95;;
44774;SDS011;31340;51.402;0.016;2023-07-31T04:45:50;3.95;;;1.73;;
44774;SDS011;31340;51.402;0.016;2023-07-31T04:48:18;4.22;;;1.73;;
44774;SDS011;31340;51.402;0.016;2023-07-31T04:50:45;3.05;;;1.67;;
44774;SDS011;31340;51.402;0.016;2023-07-31T04:53:13;4.00;;;2.17;;
44774;SDS011;31340;51.402;0.016;2023-07-31T04:55:41;5.28;;;1.83;;
44774;SDS011;31340;51.402;0.016;2023-07-31T04:58:08;1.75;;;1.38;;
44774;SDS011;31340;51.402;0.016;2023-07-31T05:00:36;3.38;;;1.83;;
44774;SDS011;31340;51.402;0.016;2023-07-31T05:03:04;4.45;;;2.10;;
44774;SDS011;31340;51.402;0.016;2023-07-31T05:05:32;3.78;;;1.90;;
44774;SDS011;31340;51.402;0.016;2023-07-31T05:07:59;2.03;;;1.60;;
44774;SDS011;31340;51.402;0.016;2023-07-31T05:10:27;5.85;;;1.80;;
44774;SDS011;31340;51.402;0.016;2023-07-31T05:12:55;1.88;;;1.52;;
44774;SDS011;31340;51.402;0.016;2023-07-31T05:15:22;2.97;;;1.90;;
44774;SDS011;31340;51.402;0.016;2023-07-31T05:17:50;3.58;;;1.85;;
44774;SDS011;31340;51.402;0.016;2023-07-31T05:20:18;4.63;;;1.75;;
44774;SDS011;31340;51.402;0.016;2023-07-31T05:22:46;6.63;;;2.03;;
44774;SDS011;31340;51.402;0.016;2023-07-31T05:25:14;5.20;;;2.22;;
44774;SDS011;31340;51.402;0.016;2023-07-31T05:27:41;6.32;;;2.20;;
44774;SDS011;31340;51.402;0.016;2023-07-31T05:30:09;4.05;;;2.10;;
44774;SDS011;31340;51.402;0.016;2023-07-31T05:32:36;5.03;;;2.00;;
44774;SDS011;31340;51.402;0.016;2023-07-31T05:35:04;3.30;;;1.70;;
44774;SDS011;31340;51.402;0.016;2023-07-31T05:37:32;3.38;;;1.75;;
44774;SDS011;31340;51.402;0.016;2023-07-31T05:40:00;5.05;;;2.13;;
44774;SDS011;31340;51.402;0.016;2023-07-31T05:42:28;4.90;;;2.00;;
44774;SDS011;31340;51.402;0.016;2023-07-31T05:44:56;5.13;;;2.47;;
44774;SDS011;31340;51.402;0.016;2023-07-31T05:47:23;6.70;;;2.35;;
44774;SDS011;31340;51.402;0.016;2023-07-31T05:49:51;5.20;;;1.90;;
44774;SDS011;31340;51.402;0.016;2023-07-31T05:52:19;5.55;;;1.80;;
44774;SDS011;31340;51.402;0.016;2023-07-31T05:54:47;4.55;;;1.90;;
44774;SDS011;31340;51.402;0.016;2023-07-31T05:57:15;4.60;;;1.77;;
44774;SDS011;31340;51.402;0.016;2023-07-31T05:59:43;3.38;;;1.70;;
44774;SDS011;31340;51.402;0.016;2023-07-31T06:02:11;5.25;;;2.00;;
44774;SDS011;31340;51.402;0.016;2023-07-31T06:04:38;5.57;;;2.20;;
44774;SDS011;31340;51.402;0.016;2023-07-31T06:07:06;3.45;;;1.70;;
44774;SDS011;31340;51.402;0.016;2023-07-31T06:09:34;4.60;;;2.08;;
44774;SDS011;31340;51.402;0.016;2023-07-31T06:12:02;6.05;;;2.88;;
44774;SDS011;31340;51.402;0.016;2023-07-31T06:14:31;3.22;;;1.50;;
44774;SDS011;31340;51.402;0.016;2023-07-31T06:16:59;3.00;;;1.70;;
44774;SDS011;31340;51.402;0.016;2023-07-31T06:19:26;5.90;;;1.85;;
44774;SDS011;31340;51.402;0.016;2023-07-31T06:21:54;5.65;;;1.92;;
44774;SDS011;31340;51.402;0.016;2023-07-31T06:24:22;4.53;;;1.65;;
44774;SDS011;31340;51.402;0.016;2023-07-31T06:26:50;4.97;;;2.00;;
44774;SDS011;31340;51.402;0.016;2023-07-31T06:29:18;4.20;;;1.80;;
44774;SDS011;31340;51.402;0.016;2023-07-31T06:31:46;6.20;;;2.08;;
44774;SDS011;31340;51.402;0.016;2023-07-31T06:34:14;6.25;;;2.20;;
44774;SDS011;31340;51.402;0.016;2023-07-31T06:36:41;7.65;;;2.08;;
44774;SDS011;31340;51.402;0.016;2023-07-31T06:39:10;5.60;;;2.35;;
44774;SDS011;31340;51.402;0.016;2023-07-31T06:41:38;6.25;;;1.80;;
44774;SDS011;31340;51.402;0.016;2023-07-31T06:44:10;7.53;;;2.47;;
44774;SDS011;31340;51.402;0.016;2023-07-31T06:46:38;5.95;;;2.17;;
44774;SDS011;31340;51.402;0.016;2023-07-31T06:49:06;5.20;;;2.05;;
44774;SDS011;31340;51.402;0.016;2023-07-31T06:51:34;4.13;;;1.90;;
44774;SDS011;31340;51.402;0.016;2023-07-31T06:54:03;5.63;;;2.00;;
44774;SDS011;31340;51.402;0.016;2023-07-31T06:56:31;5.55;;;2.13;;
44774;SDS011;31340;51.402;0.016;2023-07-31T06:58:58;6.63;;;1.80;;
44774;SDS011;31340;51.402;0.016;2023-07-31T07:01:26;7.57;;;2.17;;
44774;SDS011;31340;51.402;0.016;2023-07-31T07:03:55;7.22;;;2.08;;
44774;SDS011;31340;51.402;0.016;2023-07-31T07:06:23;5.65;;;2.55;;
44774;SDS011;31340;51.402;0.016;2023-07-31T07:08:50;5.38;;;2.30;;
44774;SDS011;31340;51.402;0.016;2023-07-31T07:11:18;5.32;;;2.22;;
44774;SDS011;31340;51.402;0.016;2023-07-31T07:13:46;5.82;;;2.45;;
44774;SDS011;31340;51.402;0.016;2023-07-31T07:16:13;5.20;;;1.95;;
44774;SDS011;31340;51.402;0.016;2023-07-31T07:18:41;4.75;;;2.03;;
44774;SDS011;31340;51.402;0.016;2023-07-31T07:21:24;4.00;;;2.20;;
44774;SDS011;31340;51.402;0.016;2023-07-31T07:23:52;8.65;;;2.10;;
44774;SDS011;31340;51.402;0.016;2023-07-31T07:26:19;5.55;;;1.73;;
44774;SDS011;31340;51.402;0.016;2023-07-31T07:28:47;8.18;;;2.20;;
44774;SDS011;31340;51.402;0.016;2023-07-31T07:31:15;7.63;;;2.58;;
44774;SDS011;31340;51.402;0.016;2023-07-31T07:33:43;6.78;;;1.98;;
44774;SDS011;31340;51.402;0.016;2023-07-31T07:36:10;9.20;;;3.05;;
44774;SDS011;31340;51.402;0.016;2023-07-31T07:38:39;12.68;;;2.85;;
44774;SDS011;31340;51.402;0.016;2023-07-31T07:41:08;10.27;;;2.70;;
44774;SDS011;31340;51.402;0.016;2023-07-31T07:43:35;4.65;;;2.30;;
44774;SDS011;31340;51.402;0.016;2023-07-31T07:46:04;6.35;;;2.70;;
44774;SDS011;31340;51.402;0.016;2023-07-31T07:48:31;5.03;;;2.30;;
44774;SDS011;31340;51.402;0.016;2023-07-31T07:50:59;7.18;;;2.28;;
44774;SDS011;31340;51.402;0.016;2023-07-31T07:53:26;5.35;;;2.42;;
44774;SDS011;31340;51.402;0.016;2023-07-31T07:55:54;9.65;;;2.58;;
44774;SDS011;31340;51.402;0.016;2023-07-31T07:58:22;6.20;;;2.25;;
44774;SDS011;31340;51.402;0.016;2023-07-31T08:00:50;4.65;;;2.42;;
44774;SDS011;31340;51.402;0.016;2023-07-31T08:03:19;6.82;;;2.78;;
44774;SDS011;31340;51.402;0.016;2023-07-31T08:05:47;8.95;;;2.97;;
44774;SDS011;31340;51.402;0.016;2023-07-31T08:08:15;5.70;;;2.92;;
44774;SDS011;31340;51.402;0.016;2023-07-31T08:10:46;5.95;;;3.00;;
44774;SDS011;31340;51.402;0.016;2023-07-31T08:13:14;6.68;;;2.80;;
44774;SDS011;31340;51.402;0.016;2023-07-31T08:15:42;9.05;;;3.00;;
44774;SDS011;31340;51.402;0.016;2023-07-31T08:18:10;5.50;;;3.17;;
44774;SDS011;31340;51.402;0.016;2023-07-31T08:20:39;7.78;;;2.67;;
44774;SDS011;31340;51.402;0.016;2023-07-31T08:23:06;8.93;;;3.47;;
44774;SDS011;31340;51.402;0.016;2023-07-31T08:25:35;5.90;;;2.90;;
44774;SDS011;31340;51.402;0.016;2023-07-31T08:28:03;4.65;;;2.80;;
44774;SDS011;31340;51.402;0.016;2023-07-31T08:30:32;6.60;;;2.38;;
44774;SDS011;31340;51.402;0.016;2023-07-31T08:33:03;10.98;;;3.00;;
44774;SDS011;31340;51.402;0.016;2023-07-31T08:35:31;4.50;;;2.60;;
44774;SDS011;31340;51.402;0.016;2023-07-31T08:37:59;6.47;;;2.63;;
44774;SDS011;31340;51.402;0.016;2023-07-31T08:40:26;5.50;;;2.83;;
44774;SDS011;31340;51.402;0.016;2023-07-31T08:42:55;3.85;;;2.50;;
44774;SDS011;31340;51.402;0.016;2023-07-31T08:45:24;6.65;;;2.83;;
44774;SDS011;31340;51.402;0.016;2023-07-31T08:47:52;4.82;;;2.63;;
44774;SDS011;31340;51.402;0.016;2023-07-31T08:50:20;5.68;;;2.60;;
44774;SDS011;31340;51.402;0.016;2023-07-31T08:52:49;5.85;;;2.67;;
44774;SDS011;31340;51.402;0.016;2023-07-31T08:55:18;3.03;;;2.00;;
44774;SDS011;31340;51.402;0.016;2023-07-31T08:57:51;3.40;;;2.67;;
44774;SDS011;31340;51.402;0.016;2023-07-31T09:05:30;2.80;;;2.20;;
44774;SDS011;31340;51.402;0.016;2023-07-31T09:07:58;4.43;;;2.50;;
44774;SDS011;31340;51.402;0.016;2023-07-31T09:10:29;5.43;;;2.45;;
44774;SDS011;31340;51.402;0.016;2023-07-31T09:12:56;4.05;;;2.05;;
44774;SDS011;31340;51.402;0.016;2023-07-31T09:15:25;2.35;;;1.92;;
44774;SDS011;31340;51.402;0.016;2023-07-31T09:18:05;2.28;;;1.70;;
44774;SDS011;31340;51.402;0.016;2023-07-31T09:20:34;2.85;;;1.67;;
44774;SDS011;31340;51.402;0.016;2023-07-31T09:23:10;2.55;;;1.67;;
44774;SDS011;31340;51.402;0.016;2023-07-31T09:25:41;3.03;;;1.48;;
44774;SDS011;31340;51.402;0.016;2023-07-31T09:28:11;3.30;;;1.63;;
44774;SDS011;31340;51.402;0.016;2023-07-31T09:30:44;2.88;;;1.42;;
44774;SDS011;31340;51.402;0.016;2023-07-31T09:33:17;3.60;;;1.50;;
44774;SDS011;31340;51.402;0.016;2023-07-31T09:35:46;3.08;;;1.63;;
44774;SDS011;31340;51.402;0.016;2023-07-31T09:38:15;3.35;;;1.52;;
44774;SDS011;31340;51.402;0.016;2023-07-31T09:40:44;5.18;;;1.75;;
44774;SDS011;31340;51.402;0.016;2023-07-31T09:43:17;2.92;;;1.63;;
44774;SDS011;31340;51.402;0.016;2023-07-31T09:45:48;3.60;;;1.67;;
44774;SDS011;31340;51.402;0.016;2023-07-31T09:48:20;1.90;;;1.40;;
44774;SDS011;31340;51.402;0.016;2023-07-31T09:50:52;2.40;;;1.40;;
44774;SDS011;31340;51.402;0.016;2023-07-31T09:53:22;2.58;;;1.58;;
44774;SDS011;31340;51.402;0.016;2023-07-31T09:55:58;3.40;;;1.80;;
44774;SDS011;31340;51.402;0.016;2023-07-31T10:00:56;1.48;;;1.30;;
44774;SDS011;31340;51.402;0.016;2023-07-31T10:03:25;3.15;;;1.52;;
44774;SDS011;31340;51.402;0.016;2023-07-31T10:05:55;3.17;;;1.48;;
44774;SDS011;31340;51.402;0.016;2023-07-31T10:08:26;3.40;;;1.40;;
44774;SDS011;31340;51.402;0.016;2023-07-31T10:10:58;13.32;;;2.10;;
44774;SDS011;31340;51.402;0.016;2023-07-31T10:13:27;2.22;;;1.65;;
44774;SDS011;31340;51.402;0.016;2023-07-31T10:15:59;3.13;;;1.85;;
44774;SDS011;31340;51.402;0.016;2023-07-31T10:18:30;5.72;;;1.50;;
44774;SDS011;31340;51.402;0.016;2023-07-31T10:20:58;3.55;;;1.20;;
44774;SDS011;31340;51.402;0.016;2023-07-31T10:23:29;4.53;;;1.58;;
44774;SDS011;31340;51.402;0.016;2023-07-31T10:25:57;3.80;;;1.35;;
44774;SDS011;31340;51.402;0.016;2023-07-31T10:28:28;2.90;;;1.83;;
44774;SDS011;31340;51.402;0.016;2023-07-31T10:30:59;3.22;;;1.50;;
44774;SDS011;31340;51.402;0.016;2023-07-31T10:33:29;5.57;;;1.70;;
44774;SDS011;31340;51.402;0.016;2023-07-31T10:36:13;3.08;;;1.58;;
44774;SDS011;31340;51.402;0.016;2023-07-31T10:38:49;2.35;;;1.40;;
44774;SDS011;31340;51.402;0.016;2023-07-31T10:41:20;2.45;;;1.60;;
44774;SDS011;31340;51.402;0.016;2023-07-31T10:43:59;3.13;;;1.63;;
44774;SDS011;31340;51.402;0.016;2023-07-31T10:46:27;2.70;;;1.65;;
44774;SDS011;31340;51.402;0.016;2023-07-31T10:49:02;2.60;;;1.75;;
44774;SDS011;31340;51.402;0.016;2023-07-31T10:51:33;5.28;;;1.80;;
44774;SDS011;31340;51.402;0.016;2023-07-31T10:54:12;5.00;;;2.30;;
44774;SDS011;31340;51.402;0.016;2023-07-31T10:56:44;6.15;;;2.20;;
44774;SDS011;31340;51.402;0.016;2023-07-31T10:59:13;6.95;;;2.25;;
44774;SDS011;31340;51.402;0.016;2023-07-31T11:04:26;6.22;;;2.05;;
44774;SDS011;31340;51.402;0.016;2023-07-31T11:06:58;3.63;;;1.90;;
44774;SDS011;31340;51.402;0.016;2023-07-31T11:09:30;4.78;;;2.00;;
44774;SDS011;31340;51.402;0.016;2023-07-31T11:11:59;2.45;;;1.63;;
44774;SDS011;31340;51.402;0.016;2023-07-31T11:14:27;5.07;;;1.98;;
44774;SDS011;31340;51.402;0.016;2023-07-31T11:16:54;3.55;;;1.50;;
44774;SDS011;31340;51.402;0.016;2023-07-31T11:19:23;4.40;;;1.52;;
44774;SDS011;31340;51.402;0.016;2023-07-31T11:21:52;5.15;;;2.05;;
44774;SDS011;31340;51.402;0.016;2023-07-31T11:24:20;3.65;;;1.60;;
44774;SDS011;31340;51.402;0.016;2023-07-31T11:26:51;3.13;;;1.50;;
44774;SDS011;31340;51.402;0.016;2023-07-31T11:29:19;2.95;;;1.60;;
44774;SDS011;31340;51.402;0.016;2023-07-31T11:31:47;2.72;;;1.25;;
44774;SDS011;31340;51.402;0.016;2023-07-31T11:34:16;4.80;;;2.05;;
44774;SDS011;31340;51.402;0.016;2023-07-31T11:36:54;7.72;;;1.50;;
44774;SDS011;31340;51.402;0.016;2023-07-31T11:39:22;2.75;;;1.48;;
44774;SDS011;31340;51.402;0.016;2023-07-31T11:41:50;3.95;;;1.80;;
44774;SDS011;31340;51.402;0.016;2023-07-31T11:44:17;2.75;;;1.63;;
44774;SDS011;31340;51.402;0.016;2023-07-31T11:46:56;4.95;;;1.50;;
44774;SDS011;31340;51.402;0.016;2023-07-31T11:49:24;5.53;;;2.00;;
44774;SDS011;31340;51.402;0.016;2023-07-31T11:51:52;5.38;;;2.00;;
44774;SDS011;31340;51.402;0.016;2023-07-31T11:54:20;5.75;;;2.22;;
44774;SDS011;31340;51.402;0.016;2023-07-31T11:56:47;3.28;;;1.60;;
44774;SDS011;31340;51.402;0.016;2023-07-31T11:59:16;4.80;;;1.85;;
44774;SDS011;31340;51.402;0.016;2023-07-31T12:01:44;5.85;;;2.15;;
44774;SDS011;31340;51.402;0.016;2023-07-31T12:04:11;6.63;;;1.90;;
44774;SDS011;31340;51.402;0.016;2023-07-31T12:06:39;5.38;;;2.53;;
44774;SDS011;31340;51.402;0.016;2023-07-31T12:09:07;2.55;;;1.92;;
44774;SDS011;31340;51.402;0.016;2023-07-31T12:11:44;6.20;;;2.20;;
44774;SDS011;31340;51.402;0.016;2023-07-31T12:14:21;4.65;;;1.92;;
44774;SDS011;31340;51.402;0.016;2023-07-31T12:17:00;5.65;;;2.10;;
44774;SDS011;31340;51.402;0.016;2023-07-31T12:19:31;5.28;;;2.03;;
44774;SDS011;31340;51.402;0.016;2023-07-31T12:21:59;4.30;;;2.33;;
44774;SDS011;31340;51.402;0.016;2023-07-31T12:24:27;10.32;;;2.38;;
44774;SDS011;31340;51.402;0.016;2023-07-31T12:26:55;5.65;;;2.15;;
44774;SDS011;31340;51.402;0.016;2023-07-31T12:29:23;5.22;;;2.35;;
44774;SDS011;31340;51.402;0.016;2023-07-31T12:31:50;4.68;;;2.10;;
44774;SDS011;31340;51.402;0.016;2023-07-31T12:34:18;6.00;;;2.03;;
44774;SDS011;31340;51.402;0.016;2023-07-31T12:36:52;3.58;;;1.83;;
44774;SDS011;31340;51.402;0.016;2023-07-31T12:39:20;6.45;;;2.30;;
44774;SDS011;31340;51.402;0.016;2023-07-31T12:41:48;4.43;;;2.20;;
44774;SDS011;31340;51.402;0.016;2023-07-31T12:44:15;4.45;;;2.50;;
44774;SDS011;31340;51.402;0.016;2023-07-31T12:46:43;7.40;;;2.30;;
44774;SDS011;31340;51.402;0.016;2023-07-31T12:49:11;6.85;;;1.92;;
44774;SDS011;31340;51.402;0.016;2023-07-31T12:51:39;4.40;;;1.85;;
44774;SDS011;31340;51.402;0.016;2023-07-31T12:54:06;5.10;;;2.30;;
44774;SDS011;31340;51.402;0.016;2023-07-31T12:56:34;5.97;;;2.63;;
44774;SDS011;31340;51.402;0.016;2023-07-31T12:59:01;6.13;;;2.38;;
44774;SDS011;31340;51.402;0.016;2023-07-31T13:01:29;5.47;;;2.05;;
44774;SDS011;31340;51.402;0.016;2023-07-31T13:03:56;4.00;;;1.88;;
44774;SDS011;31340;51.402;0.016;2023-07-31T13:06:24;5.13;;;2.00;;
44774;SDS011;31340;51.402;0.016;2023-07-31T13:08:52;4.50;;;2.08;;
44774;SDS011;31340;51.402;0.016;2023-07-31T13:11:20;5.40;;;2.63;;
44774;SDS011;31340;51.402;0.016;2023-07-31T13:13:48;5.25;;;2.25;;
44774;SDS011;31340;51.402;0.016;2023-07-31T13:16:15;5.88;;;2.35;;
44774;SDS011;31340;51.402;0.016;2023-07-31T13:18:43;6.97;;;2.67;;
44774;SDS011;31340;51.402;0.016;2023-07-31T13:21:10;6.93;;;2.58;;
44774;SDS011;31340;51.402;0.016;2023-07-31T13:23:38;9.35;;;3.05;;
44774;SDS011;31340;51.402;0.016;2023-07-31T13:26:06;7.93;;;2.83;;
44774;SDS011;31340;51.402;0.016;2023-07-31T13:28:33;6.70;;;3.05;;
44774;SDS011;31340;51.402;0.016;2023-07-31T13:31:01;7.82;;;2.75;;
44774;SDS011;31340;51.402;0.016;2023-07-31T13:33:28;7.03;;;3.20;;
44774;SDS011;31340;51.402;0.016;2023-07-31T13:36:04;9.70;;;3.00;;
44774;SDS011;31340;51.402;0.016;2023-07-31T13:38:32;8.00;;;3.10;;
44774;SDS011;31340;51.402;0.016;2023-07-31T13:41:00;14.02;;;3.92;;
44774;SDS011;31340;51.402;0.016;2023-07-31T13:43:27;9.52;;;3.97;;
44774;SDS011;31340;51.402;0.016;2023-07-31T13:45:55;10.10;;;3.40;;
44774;SDS011;31340;51.402;0.016;2023-07-31T13:48:23;10.35;;;3.35;;
44774;SDS011;31340;51.402;0.016;2023-07-31T13:50:50;9.57;;;3.40;;
44774;SDS011;31340;51.402;0.016;2023-07-31T13:53:18;12.55;;;3.65;;
44774;SDS011;31340;51.402;0.016;2023-07-31T13:55:45;9.10;;;4.18;;
44774;SDS011;31340;51.402;0.016;2023-07-31T13:58:13;10.88;;;4.10;;
44774;SDS011;31340;51.402;0.016;2023-07-31T14:00:40;8.55;;;4.22;;
44774;SDS011;31340;51.402;0.016;2023-07-31T14:03:08;10.85;;;4.63;;
44774;SDS011;31340;51.402;0.016;2023-07-31T14:05:37;9.43;;;4.63;;
44774;SDS011;31340;51.402;0.016;2023-07-31T14:08:05;11.63;;;4.43;;
44774;SDS011;31340;51.402;0.016;2023-07-31T14:10:33;17.77;;;4.68;;
44774;SDS011;31340;51.402;0.016;2023-07-31T14:13:00;13.50;;;4.28;;
44774;SDS011;31340;51.402;0.016;2023-07-31T14:15:28;10.23;;;3.83;;
44774;SDS011;31340;51.402;0.016;2023-07-31T14:17:56;14.10;;;4.78;;
44774;SDS011;31340;51.402;0.016;2023-07-31T14:20:28;10.63;;;4.28;;
44774;SDS011;31340;51.402;0.016;2023-07-31T14:22:56;15.80;;;4.40;;
44774;SDS011;31340;51.402;0.016;2023-07-31T14:25:24;18.05;;;5.20;;
44774;SDS011;31340;51.402;0.016;2023-07-31T14:27:52;11.95;;;4.38;;
44774;SDS011;31340;51.402;0.016;2023-07-31T14:30:19;12.40;;;4.70;;
44774;SDS011;31340;51.402;0.016;2023-07-31T14:32:47;15.40;;;5.07;;
44774;SDS011;31340;51.402;0.016;2023-07-31T14:35:14;12.10;;;4.43;;
44774;SDS011;31340;51.402;0.016;2023-07-31T14:37:43;10.98;;;5.28;;
44774;SDS011;31340;51.402;0.016;2023-07-31T14:40:12;8.88;;;3.97;;
44774;SDS011;31340;51.402;0.016;2023-07-31T14:42:40;13.88;;;4.47;;
44774;SDS011;31340;51.402;0.016;2023-07-31T14:45:08;13.93;;;4.43;;
44774;SDS011;31340;51.402;0.016;2023-07-31T14:47:37;13.63;;;5.10;;
44774;SDS011;31340;51.402;0.016;2023-07-31T14:50:05;9.05;;;4.15;;
44774;SDS011;31340;51.402;0.016;2023-07-31T14:52:33;11.55;;;4.63;;
44774;SDS011;31340;51.402;0.016;2023-07-31T14:55:01;12.32;;;4.45;;
44774;SDS011;31340;51.402;0.016;2023-07-31T14:57:29;11.93;;;3.85;;
44774;SDS011;31340;51.402;0.016;2023-07-31T14:59:56;15.27;;;4.18;;
44774;SDS011;31340;51.402;0.016;2023-07-31T15:02:26;10.20;;;4.30;;
44774;SDS011;31340;51.402;0.016;2023-07-31T15:04:54;14.40;;;4.72;;
44774;SDS011;31340;51.402;0.016;2023-07-31T15:07:22;11.60;;;3.92;;